sensor_id;sensor_type;location;lat;lon;timestamp;pressure;altitude;pressure_sealevel;temperature;humidity
9261;BME280;4667;42.726;23.252;2024-03-22T00:02:08;95308.81;;;7.44;42.79
9261;BME280;4667;42.726;23.252;2024-03-22T00:04:38;94912.03;;;4.82;43.14
9261;BME280;4667;42.726;23.252;2024-03-22T00:07:04;95060.00;;;5.87;42.81
9261;BME280;4667;42.726;23.252;2024-03-22T00:09:32;95027.53;;;5.76;42.69
9261;BME280;4667;42.726;23.252;2024-03-22T00:11:59;95191.16;;;6.64;43.62
9261;BME280;4667;42.726;23.252;2024-03-22T00:14:26;95204.47;;;6.62;43.72
9261;BME280;4667;42.726;23.252;2024-03-22T00:16:52;94918.34;;;4.93;44.15
9261;BME280;4667;42.726;23.252;2024-03-22T00:19:19;95289.03;;;7.29;43.33
9261;BME280;4667;42.726;23.252;2024-03-22T00:21:46;95200.84;;;6.63;44.43
9261;BME280;4667;42.726;23.252;2024-03-22T00:24:14;95067.63;;;5.58;44.59
9261;BME280;4667;42.726;23.252;2024-03-22T00:26:40;94578.22;;;2.60;44.75
9261;BME280;4667;42.726;23.252;2024-03-22T00:29:07;94947.03;;;4.81;44.59
9261;BME280;4667;42.726;23.252;2024-03-22T00:31:33;95214.13;;;6.50;44.58
9261;BME280;4667;42.726;23.252;2024-03-22T00:34:00;95240.41;;;6.43;44.17
9261;BME280;4667;42.726;23.252;2024-03-22T00:36:26;95064.72;;;5.30;44.72
9261;BME280;4667;42.726;23.252;2024-03-22T00:38:55;95016.22;;;4.97;44.87
9261;BME280;4667;42.726;23.252;2024-03-22T00:41:21;94981.75;;;4.63;45.15
9261;BME280;4667;42.726;23.252;2024-03-22T00:43:48;95189.03;;;5.94;45.52
9261;BME280;4667;42.726;23.252;2024-03-22T00:46:14;95179.81;;;5.66;46.43
9261;BME280;4667;42.726;23.252;2024-03-22T00:48:41;95136.16;;;5.48;45.30
9261;BME280;4667;42.726;23.252;2024-03-22T00:51:07;94668.81;;;2.45;45.52
9261;BME280;4667;42.726;23.252;2024-03-22T00:53:34;95128.16;;;5.43;45.48
9261;BME280;4667;42.726;23.252;2024-03-22T00:56:01;95301.38;;;6.14;46.10
9261;BME280;4667;42.726;23.252;2024-03-22T00:58:29;95095.34;;;5.04;45.98
9261;BME280;4667;42.726;23.252;2024-03-22T01:00:55;95071.59;;;4.62;46.56
9261;BME280;4667;42.726;23.252;2024-03-22T01:03:22;94693.09;;;2.39;46.06
9261;BME280;4667;42.726;23.252;2024-03-22T01:05:49;95293.72;;;6.12;45.77
9261;BME280;4667;42.726;23.252;2024-03-22T01:08:16;94832.31;;;3.38;46.41
9261;BME280;4667;42.726;23.252;2024-03-22T01:10:42;95248.94;;;6.02;46.53
9261;BME280;4667;42.726;23.252;2024-03-22T01:13:10;95156.34;;;5.16;46.09
9261;BME280;4667;42.726;23.252;2024-03-22T01:15:36;94988.84;;;4.38;44.49
9261;BME280;4667;42.726;23.252;2024-03-22T01:18:04;95029.03;;;4.55;43.81
9261;BME280;4667;42.726;23.252;2024-03-22T01:20:30;95187.38;;;5.56;44.59
9261;BME280;4667;42.726;23.252;2024-03-22T01:22:59;94984.31;;;4.27;45.79
9261;BME280;4667;42.726;23.252;2024-03-22T01:25:25;94972.75;;;4.41;46.67
9261;BME280;4667;42.726;23.252;2024-03-22T01:27:52;94997.84;;;4.42;46.45
9261;BME280;4667;42.726;23.252;2024-03-22T01:30:19;94837.88;;;3.42;46.73
9261;BME280;4667;42.726;23.252;2024-03-22T01:32:46;95121.31;;;4.99;46.65
9261;BME280;4667;42.726;23.252;2024-03-22T01:35:12;94827.19;;;3.25;45.70
9261;BME280;4667;42.726;23.252;2024-03-22T01:37:39;95121.25;;;5.06;44.05
9261;BME280;4667;42.726;23.252;2024-03-22T01:40:08;95167.13;;;5.27;44.12
9261;BME280;4667;42.726;23.252;2024-03-22T01:42:35;95184.59;;;5.33;44.07
9261;BME280;4667;42.726;23.252;2024-03-22T01:45:01;95299.03;;;6.24;43.87
9261;BME280;4667;42.726;23.252;2024-03-22T01:47:30;95254.47;;;6.12;43.22
9261;BME280;4667;42.726;23.252;2024-03-22T01:49:57;95075.59;;;5.08;43.03
9261;BME280;4667;42.726;23.252;2024-03-22T01:52:24;95129.72;;;5.26;44.34
9261;BME280;4667;42.726;23.252;2024-03-22T01:54:50;94918.44;;;4.06;45.18
9261;BME280;4667;42.726;23.252;2024-03-22T01:57:17;95207.03;;;6.02;44.59
9261;BME280;4667;42.726;23.252;2024-03-22T01:59:43;95093.34;;;5.25;44.10
9261;BME280;4667;42.726;23.252;2024-03-22T02:02:13;95127.66;;;5.53;45.18
9261;BME280;4667;42.726;23.252;2024-03-22T02:04:41;95046.25;;;4.88;44.96
9261;BME280;4667;42.726;23.252;2024-03-22T02:07:08;95091.59;;;5.18;44.95
9261;BME280;4667;42.726;23.252;2024-03-22T02:09:34;95076.97;;;5.11;45.31
9261;BME280;4667;42.726;23.252;2024-03-22T02:12:03;95141.81;;;5.02;46.63
9261;BME280;4667;42.726;23.252;2024-03-22T02:14:29;94986.00;;;4.14;46.82
9261;BME280;4667;42.726;23.252;2024-03-22T02:16:56;95232.88;;;5.55;47.20
9261;BME280;4667;42.726;23.252;2024-03-22T02:19:22;95159.09;;;4.78;47.56
9261;BME280;4667;42.726;23.252;2024-03-22T02:21:51;95136.91;;;4.87;47.54
9261;BME280;4667;42.726;23.252;2024-03-22T02:24:18;95127.41;;;4.68;47.62
9261;BME280;4667;42.726;23.252;2024-03-22T02:26:45;95192.31;;;4.96;47.43
9261;BME280;4667;42.726;23.252;2024-03-22T02:29:11;95173.06;;;4.90;47.69
9261;BME280;4667;42.726;23.252;2024-03-22T02:31:38;95177.03;;;4.68;48.31
9261;BME280;4667;42.726;23.252;2024-03-22T02:34:04;94892.34;;;2.80;48.08
9261;BME280;4667;42.726;23.252;2024-03-22T02:36:31;95177.59;;;4.77;48.34
9261;BME280;4667;42.726;23.252;2024-03-22T02:38:57;95310.28;;;5.38;48.78
9261;BME280;4667;42.726;23.252;2024-03-22T02:41:26;94917.00;;;2.71;48.65
9261;BME280;4667;42.726;23.252;2024-03-22T02:43:52;94963.56;;;3.05;49.19
9261;BME280;4667;42.726;23.252;2024-03-22T02:46:19;95020.13;;;3.50;49.45
9261;BME280;4667;42.726;23.252;2024-03-22T02:48:45;95162.31;;;4.04;49.89
9261;BME280;4667;42.726;23.252;2024-03-22T02:51:12;94954.13;;;2.53;50.38
9261;BME280;4667;42.726;23.252;2024-03-22T02:53:38;95173.38;;;4.06;50.17
9261;BME280;4667;42.726;23.252;2024-03-22T02:56:05;95339.06;;;5.00;50.01
9261;BME280;4667;42.726;23.252;2024-03-22T02:58:32;95200.31;;;3.93;50.78
9261;BME280;4667;42.726;23.252;2024-03-22T03:01:00;95183.91;;;3.73;50.39
9261;BME280;4667;42.726;23.252;2024-03-22T03:03:28;95255.19;;;4.25;50.20
9261;BME280;4667;42.726;23.252;2024-03-22T03:05:55;94816.16;;;0.95;51.90
9261;BME280;4667;42.726;23.252;2024-03-22T03:08:21;94840.41;;;1.36;50.96
9261;BME280;4667;42.726;23.252;2024-03-22T03:10:48;95167.94;;;3.49;50.44
9261;BME280;4667;42.726;23.252;2024-03-22T03:13:14;94904.00;;;1.79;50.70
9261;BME280;4667;42.726;23.252;2024-03-22T03:15:43;95163.38;;;3.25;51.38
9261;BME280;4667;42.726;23.252;2024-03-22T03:18:09;94888.75;;;1.43;50.45
9261;BME280;4667;42.726;23.252;2024-03-22T03:20:36;94770.41;;;0.74;50.64
9261;BME280;4667;42.726;23.252;2024-03-22T03:23:03;95329.69;;;4.34;51.25
9261;BME280;4667;42.726;23.252;2024-03-22T03:25:30;94487.97;;;-1.22;51.44
9261;BME280;4667;42.726;23.252;2024-03-22T03:27:56;94951.34;;;1.55;52.14
9261;BME280;4667;42.726;23.252;2024-03-22T03:30:23;95195.66;;;3.10;51.19
9261;BME280;4667;42.726;23.252;2024-03-22T03:32:51;95061.84;;;2.19;51.94
9261;BME280;4667;42.726;23.252;2024-03-22T03:35:19;95198.25;;;3.17;51.66
9261;BME280;4667;42.726;23.252;2024-03-22T03:37:45;95209.72;;;3.23;51.49
9261;BME280;4667;42.726;23.252;2024-03-22T03:40:13;95340.41;;;3.99;52.06
9261;BME280;4667;42.726;23.252;2024-03-22T03:42:39;95311.34;;;3.89;52.02
9261;BME280;4667;42.726;23.252;2024-03-22T03:45:07;95339.81;;;3.97;52.05
9261;BME280;4667;42.726;23.252;2024-03-22T03:47:34;95347.03;;;4.15;52.20
9261;BME280;4667;42.726;23.252;2024-03-22T03:50:33;95267.22;;;3.54;52.38
9261;BME280;4667;42.726;23.252;2024-03-22T03:52:59;95353.84;;;4.09;52.57
9261;BME280;4667;42.726;23.252;2024-03-22T03:55:28;95209.50;;;3.24;52.69
9261;BME280;4667;42.726;23.252;2024-03-22T03:57:54;95357.84;;;4.12;53.51
9261;BME280;4667;42.726;23.252;2024-03-22T04:00:22;95248.56;;;3.37;53.04
9261;BME280;4667;42.726;23.252;2024-03-22T04:02:49;95322.38;;;3.84;52.80
9261;BME280;4667;42.726;23.252;2024-03-22T04:05:16;95166.41;;;2.75;52.84
9261;BME280;4667;42.726;23.252;2024-03-22T04:07:47;95369.69;;;4.14;53.14
9261;BME280;4667;42.726;23.252;2024-03-22T04:10:14;95389.97;;;4.26;52.79
9261;BME280;4667;42.726;23.252;2024-03-22T04:12:40;95233.56;;;3.33;52.77
9261;BME280;4667;42.726;23.252;2024-03-22T04:15:08;95235.97;;;3.28;52.76
9261;BME280;4667;42.726;23.252;2024-03-22T04:17:35;95366.06;;;4.29;53.01
9261;BME280;4667;42.726;23.252;2024-03-22T04:20:11;95277.81;;;3.73;52.96
9261;BME280;4667;42.726;23.252;2024-03-22T04:22:38;95320.09;;;4.14;52.82
9261;BME280;4667;42.726;23.252;2024-03-22T04:25:08;95205.66;;;3.47;52.93
9261;BME280;4667;42.726;23.252;2024-03-22T04:27:39;95150.78;;;2.95;52.79
9261;BME280;4667;42.726;23.252;2024-03-22T04:30:10;95230.91;;;3.53;52.86
9261;BME280;4667;42.726;23.252;2024-03-22T04:32:37;95292.84;;;3.90;52.94
9261;BME280;4667;42.726;23.252;2024-03-22T04:35:08;95261.59;;;3.57;53.13
9261;BME280;4667;42.726;23.252;2024-03-22T04:37:37;95355.84;;;4.14;53.14
9261;BME280;4667;42.726;23.252;2024-03-22T04:40:05;95328.59;;;3.70;53.33
9261;BME280;4667;42.726;23.252;2024-03-22T04:42:53;95403.78;;;4.46;53.10
9261;BME280;4667;42.726;23.252;2024-03-22T04:45:21;95392.34;;;4.40;53.43
9261;BME280;4667;42.726;23.252;2024-03-22T04:48:04;95409.19;;;4.44;53.28
9261;BME280;4667;42.726;23.252;2024-03-22T04:54:31;95358.88;;;3.78;53.61
9261;BME280;4667;42.726;23.252;2024-03-22T04:56:58;95289.09;;;3.47;53.47
9261;BME280;4667;42.726;23.252;2024-03-22T04:59:26;94889.00;;;0.74;54.52
9261;BME280;4667;42.726;23.252;2024-03-22T05:01:53;95349.66;;;3.82;54.56
9261;BME280;4667;42.726;23.252;2024-03-22T05:04:19;95272.44;;;3.21;53.73
9261;BME280;4667;42.726;23.252;2024-03-22T05:06:46;94890.44;;;0.83;54.49
9261;BME280;4667;42.726;23.252;2024-03-22T05:09:12;94988.53;;;1.55;54.73
9261;BME280;4667;42.726;23.252;2024-03-22T05:11:39;95446.78;;;4.24;54.66
9261;BME280;4667;42.726;23.252;2024-03-22T05:14:05;94930.53;;;1.28;54.08
9261;BME280;4667;42.726;23.252;2024-03-22T05:16:35;95279.66;;;3.59;54.34
9261;BME280;4667;42.726;23.252;2024-03-22T05:19:01;94990.97;;;1.77;53.65
9261;BME280;4667;42.726;23.252;2024-03-22T05:21:28;95374.31;;;4.19;53.75
9261;BME280;4667;42.726;23.252;2024-03-22T05:23:54;95372.28;;;4.28;53.98
9261;BME280;4667;42.726;23.252;2024-03-22T05:26:22;94776.34;;;0.55;53.18
9261;BME280;4667;42.726;23.252;2024-03-22T05:28:48;95428.00;;;4.80;52.88
9261;BME280;4667;42.726;23.252;2024-03-22T05:31:15;95429.19;;;4.84;52.85
9261;BME280;4667;42.726;23.252;2024-03-22T05:33:44;95351.38;;;4.41;52.73
9261;BME280;4667;42.726;23.252;2024-03-22T05:36:12;95436.34;;;5.08;52.50
9261;BME280;4667;42.726;23.252;2024-03-22T05:38:38;95436.72;;;5.18;52.17
9261;BME280;4667;42.726;23.252;2024-03-22T05:41:21;95350.00;;;4.83;51.31
9261;BME280;4667;42.726;23.252;2024-03-22T05:49:00;95088.34;;;3.40;48.87
9261;BME280;4667;42.726;23.252;2024-03-22T05:51:31;95006.50;;;2.96;48.49
9261;BME280;4667;42.726;23.252;2024-03-22T05:56:27;95443.06;;;6.06;47.98
9261;BME280;4667;42.726;23.252;2024-03-22T06:02:01;95428.09;;;6.13;47.87
9261;BME280;4667;42.726;23.252;2024-03-22T06:04:53;95451.88;;;6.36;47.07
9261;BME280;4667;42.726;23.252;2024-03-22T06:07:37;95069.38;;;3.71;46.46
9261;BME280;4667;42.726;23.252;2024-03-22T06:10:27;95284.47;;;5.66;46.19
9261;BME280;4667;42.726;23.252;2024-03-22T06:12:55;95093.28;;;4.63;46.07
9261;BME280;4667;42.726;23.252;2024-03-22T06:15:21;95086.88;;;4.59;45.32
9261;BME280;4667;42.726;23.252;2024-03-22T06:17:49;95230.78;;;5.64;45.57
9261;BME280;4667;42.726;23.252;2024-03-22T06:20:18;95309.44;;;6.12;45.13
9261;BME280;4667;42.726;23.252;2024-03-22T06:22:46;95270.31;;;6.17;44.39
9261;BME280;4667;42.726;23.252;2024-03-22T06:32:57;95051.28;;;4.64;43.80
9261;BME280;4667;42.726;23.252;2024-03-22T06:35:25;95446.84;;;7.45;43.18
9261;BME280;4667;42.726;23.252;2024-03-22T06:37:51;95317.59;;;6.77;43.21
9261;BME280;4667;42.726;23.252;2024-03-22T06:40:18;95426.88;;;7.44;43.25
9261;BME280;4667;42.726;23.252;2024-03-22T06:42:45;95383.44;;;7.18;42.85
9261;BME280;4667;42.726;23.252;2024-03-22T06:45:13;95037.34;;;5.14;43.58
9261;BME280;4667;42.726;23.252;2024-03-22T06:47:38;95426.63;;;7.64;43.81
9261;BME280;4667;42.726;23.252;2024-03-22T06:50:06;95462.31;;;7.83;43.39
9261;BME280;4667;42.726;23.252;2024-03-22T06:52:34;95149.50;;;5.77;44.00
9261;BME280;4667;42.726;23.252;2024-03-22T06:55:02;95149.50;;;5.77;44.03
9261;BME280;4667;42.726;23.252;2024-03-22T06:57:28;95346.78;;;7.11;44.03
9261;BME280;4667;42.726;23.252;2024-03-22T06:59:56;95052.94;;;5.20;44.15
9261;BME280;4667;42.726;23.252;2024-03-22T07:02:28;95461.47;;;7.82;44.18
9261;BME280;4667;42.726;23.252;2024-03-22T07:05:26;95090.84;;;5.85;43.58
9261;BME280;4667;42.726;23.252;2024-03-22T07:08:23;95463.59;;;8.46;43.26
9261;BME280;4667;42.726;23.252;2024-03-22T07:11:05;95477.88;;;8.50;43.17
9261;BME280;4667;42.726;23.252;2024-03-22T07:13:35;95193.06;;;6.87;41.94
9261;BME280;4667;42.726;23.252;2024-03-22T07:16:02;95175.00;;;6.67;41.78
9261;BME280;4667;42.726;23.252;2024-03-22T07:18:32;95292.94;;;7.39;42.16
9261;BME280;4667;42.726;23.252;2024-03-22T07:20:58;95210.19;;;7.13;41.45
9261;BME280;4667;42.726;23.252;2024-03-22T07:23:29;95319.81;;;7.99;41.07
9261;BME280;4667;42.726;23.252;2024-03-22T07:25:55;95467.59;;;9.35;41.98
9261;BME280;4667;42.726;23.252;2024-03-22T07:28:22;95204.88;;;7.78;40.85
9261;BME280;4667;42.726;23.252;2024-03-22T07:30:49;95287.63;;;8.04;40.23
9261;BME280;4667;42.726;23.252;2024-03-22T07:33:17;95239.50;;;8.27;40.07
9261;BME280;4667;42.726;23.252;2024-03-22T07:35:44;95326.78;;;9.21;39.90
9261;BME280;4667;42.726;23.252;2024-03-22T07:38:13;95332.03;;;9.21;39.46
9261;BME280;4667;42.726;23.252;2024-03-22T07:40:44;95121.88;;;8.17;39.67
9261;BME280;4667;42.726;23.252;2024-03-22T07:43:11;95361.25;;;9.65;38.96
9261;BME280;4667;42.726;23.252;2024-03-22T07:45:43;94728.56;;;5.81;38.11
9261;BME280;4667;42.726;23.252;2024-03-22T07:48:10;95317.75;;;9.79;37.84
9261;BME280;4667;42.726;23.252;2024-03-22T07:50:37;94902.22;;;7.09;37.98
9261;BME280;4667;42.726;23.252;2024-03-22T07:53:04;94896.72;;;7.67;36.80
9261;BME280;4667;42.726;23.252;2024-03-22T07:55:30;95202.22;;;10.05;36.76
9261;BME280;4667;42.726;23.252;2024-03-22T08:07:18;95147.34;;;11.79;32.71
9261;BME280;4667;42.726;23.252;2024-03-22T08:10:00;95129.59;;;12.22;32.33
9261;BME280;4667;42.726;23.252;2024-03-22T08:12:32;95494.56;;;14.73;31.38
9261;BME280;4667;42.726;23.252;2024-03-22T08:17:41;95301.44;;;15.04;28.74
9261;BME280;4667;42.726;23.252;2024-03-22T08:20:10;94879.13;;;12.68;27.88
9261;BME280;4667;42.726;23.252;2024-03-22T08:25:38;95357.66;;;16.68;27.93
9261;BME280;4667;42.726;23.252;2024-03-22T08:28:04;95437.25;;;17.52;26.01
9261;BME280;4667;42.726;23.252;2024-03-22T08:30:32;95297.06;;;16.02;26.14
9261;BME280;4667;42.726;23.252;2024-03-22T08:33:01;95129.63;;;15.63;25.44
9261;BME280;4667;42.726;23.252;2024-03-22T08:35:29;95211.34;;;16.82;25.00
9261;BME280;4667;42.726;23.252;2024-03-22T08:37:56;95443.13;;;18.48;24.49
9261;BME280;4667;42.726;23.252;2024-03-22T08:40:24;95078.66;;;16.65;24.80
9261;BME280;4667;42.726;23.252;2024-03-22T08:42:51;95064.63;;;16.59;23.53
9261;BME280;4667;42.726;23.252;2024-03-22T08:45:19;95009.25;;;16.24;24.58
9261;BME280;4667;42.726;23.252;2024-03-22T08:47:45;95318.75;;;18.42;23.44
9261;BME280;4667;42.726;23.252;2024-03-22T08:50:12;94848.94;;;14.76;23.86
9261;BME280;4667;42.726;23.252;2024-03-22T08:52:39;95431.13;;;18.45;24.09
9261;BME280;4667;42.726;23.252;2024-03-22T08:55:06;95372.44;;;18.59;24.18
9261;BME280;4667;42.726;23.252;2024-03-22T09:00:13;95379.69;;;18.07;25.09
9261;BME280;4667;42.726;23.252;2024-03-22T09:02:40;95287.22;;;17.46;24.14
9261;BME280;4667;42.726;23.252;2024-03-22T09:05:07;95432.44;;;18.48;24.45
9261;BME280;4667;42.726;23.252;2024-03-22T09:07:48;95316.75;;;17.87;24.59
9261;BME280;4667;42.726;23.252;2024-03-22T09:10:16;95291.84;;;18.25;24.45
9261;BME280;4667;42.726;23.252;2024-03-22T09:12:42;95242.97;;;17.97;24.01
9261;BME280;4667;42.726;23.252;2024-03-22T09:15:09;95423.22;;;19.61;22.54
9261;BME280;4667;42.726;23.252;2024-03-22T09:17:37;95336.03;;;19.46;21.62
9261;BME280;4667;42.726;23.252;2024-03-22T09:20:05;95297.72;;;18.40;23.46
9261;BME280;4667;42.726;23.252;2024-03-22T09:22:33;95424.56;;;19.58;22.29
9261;BME280;4667;42.726;23.252;2024-03-22T09:25:00;95418.47;;;20.30;22.69
9261;BME280;4667;42.726;23.252;2024-03-22T09:27:26;95411.31;;;20.25;22.47
9261;BME280;4667;42.726;23.252;2024-03-22T09:29:53;95292.00;;;19.52;21.55
9261;BME280;4667;42.726;23.252;2024-03-22T09:32:19;95289.91;;;19.13;22.29
9261;BME280;4667;42.726;23.252;2024-03-22T09:34:51;95309.81;;;19.20;22.66
9261;BME280;4667;42.726;23.252;2024-03-22T09:37:17;95406.13;;;19.70;21.86
9261;BME280;4667;42.726;23.252;2024-03-22T09:39:44;95400.78;;;19.57;21.64
9261;BME280;4667;42.726;23.252;2024-03-22T09:42:14;95399.22;;;19.56;21.77
9261;BME280;4667;42.726;23.252;2024-03-22T09:44:46;95248.81;;;19.09;22.04
9261;BME280;4667;42.726;23.252;2024-03-22T09:47:14;95292.84;;;19.75;21.47
9261;BME280;4667;42.726;23.252;2024-03-22T09:49:41;95227.63;;;19.12;21.61
9261;BME280;4667;42.726;23.252;2024-03-22T09:52:15;95327.16;;;19.95;21.86
9261;BME280;4667;42.726;23.252;2024-03-22T09:54:43;95243.03;;;19.88;21.22
9261;BME280;4667;42.726;23.252;2024-03-22T09:57:13;95309.16;;;20.10;21.43
9261;BME280;4667;42.726;23.252;2024-03-22T09:59:42;95275.94;;;20.73;20.20
9261;BME280;4667;42.726;23.252;2024-03-22T10:02:10;95271.16;;;20.61;20.04
9261;BME280;4667;42.726;23.252;2024-03-22T10:04:38;95368.97;;;22.39;20.18
9261;BME280;4667;42.726;23.252;2024-03-22T10:07:04;95247.53;;;21.81;20.63
9261;BME280;4667;42.726;23.252;2024-03-22T10:09:33;95204.44;;;21.17;19.87
9261;BME280;4667;42.726;23.252;2024-03-22T10:11:59;95237.56;;;21.21;19.27
9261;BME280;4667;42.726;23.252;2024-03-22T10:14:26;95369.66;;;22.82;18.42
9261;BME280;4667;42.726;23.252;2024-03-22T10:16:52;95373.06;;;22.53;19.12
9261;BME280;4667;42.726;23.252;2024-03-22T10:19:20;95244.53;;;21.91;19.53
9261;BME280;4667;42.726;23.252;2024-03-22T10:21:46;95361.81;;;22.60;18.89
9261;BME280;4667;42.726;23.252;2024-03-22T10:24:15;95370.75;;;21.25;21.45
9261;BME280;4667;42.726;23.252;2024-03-22T10:26:43;95228.59;;;21.25;19.48
9261;BME280;4667;42.726;23.252;2024-03-22T10:29:11;95246.75;;;21.63;19.19
9261;BME280;4667;42.726;23.252;2024-03-22T10:31:38;95228.47;;;21.31;20.05
9261;BME280;4667;42.726;23.252;2024-03-22T10:34:06;95361.19;;;22.54;19.99
9261;BME280;4667;42.726;23.252;2024-03-22T10:36:34;95353.03;;;23.27;19.47
9261;BME280;4667;42.726;23.252;2024-03-22T10:39:02;95316.34;;;23.23;19.38
9261;BME280;4667;42.726;23.252;2024-03-22T10:41:29;95286.38;;;23.33;19.09
9261;BME280;4667;42.726;23.252;2024-03-22T10:43:58;95188.69;;;22.61;17.68
9261;BME280;4667;42.726;23.252;2024-03-22T10:46:29;95147.47;;;22.78;17.02
9261;BME280;4667;42.726;23.252;2024-03-22T10:48:57;95332.56;;;23.65;18.06
9261;BME280;4667;42.726;23.252;2024-03-22T10:51:23;95012.06;;;21.52;18.28
9261;BME280;4667;42.726;23.252;2024-03-22T10:53:52;95176.50;;;22.25;18.52
9261;BME280;4667;42.726;23.252;2024-03-22T10:56:20;95175.41;;;22.56;18.07
9261;BME280;4667;42.726;23.252;2024-03-22T10:58:48;95308.28;;;22.93;18.21
9261;BME280;4667;42.726;23.252;2024-03-22T11:01:23;95326.38;;;22.11;18.49
9261;BME280;4667;42.726;23.252;2024-03-22T11:04:03;95316.81;;;22.40;18.90
9261;BME280;4667;42.726;23.252;2024-03-22T11:06:31;95159.75;;;21.73;18.88
9261;BME280;4667;42.726;23.252;2024-03-22T11:08:59;95285.84;;;22.89;19.03
9261;BME280;4667;42.726;23.252;2024-03-22T11:11:28;95314.00;;;23.93;17.90
9261;BME280;4667;42.726;23.252;2024-03-22T11:13:55;95271.94;;;23.38;16.92
9261;BME280;4667;42.726;23.252;2024-03-22T11:16:23;95150.41;;;21.88;17.63
9261;BME280;4667;42.726;23.252;2024-03-22T11:18:50;95226.88;;;21.38;18.61
9261;BME280;4667;42.726;23.252;2024-03-22T11:21:17;95185.53;;;21.57;19.21
9261;BME280;4667;42.726;23.252;2024-03-22T11:23:45;95188.03;;;21.53;18.23
9261;BME280;4667;42.726;23.252;2024-03-22T11:26:11;95197.91;;;20.74;19.04
9261;BME280;4667;42.726;23.252;2024-03-22T11:28:40;95296.47;;;22.04;18.52
9261;BME280;4667;42.726;23.252;2024-03-22T11:31:06;95217.50;;;20.84;19.60
9261;BME280;4667;42.726;23.252;2024-03-22T11:33:34;95186.91;;;20.05;19.76
9261;BME280;4667;42.726;23.252;2024-03-22T11:36:01;95272.44;;;20.64;20.28
9261;BME280;4667;42.726;23.252;2024-03-22T11:38:30;95182.34;;;20.45;20.62
9261;BME280;4667;42.726;23.252;2024-03-22T11:40:58;95160.94;;;20.06;19.77
9261;BME280;4667;42.726;23.252;2024-03-22T11:43:27;95295.22;;;21.41;19.47
9261;BME280;4667;42.726;23.252;2024-03-22T11:45:53;95288.91;;;22.06;18.35
9261;BME280;4667;42.726;23.252;2024-03-22T11:48:20;95245.84;;;20.45;19.50
9261;BME280;4667;42.726;23.252;2024-03-22T11:50:48;95281.97;;;20.87;20.75
9261;BME280;4667;42.726;23.252;2024-03-22T11:53:16;95264.91;;;20.74;19.25
9261;BME280;4667;42.726;23.252;2024-03-22T11:55:42;95281.34;;;21.91;18.81
9261;BME280;4667;42.726;23.252;2024-03-22T11:58:09;95270.06;;;22.23;17.66
9261;BME280;4667;42.726;23.252;2024-03-22T12:00:35;95259.31;;;22.70;18.15
9261;BME280;4667;42.726;23.252;2024-03-22T12:03:04;95239.47;;;23.13;17.46
9261;BME280;4667;42.726;23.252;2024-03-22T12:05:31;95264.34;;;22.42;17.28
9261;BME280;4667;42.726;23.252;2024-03-22T12:07:59;95255.78;;;23.38;17.39
9261;BME280;4667;42.726;23.252;2024-03-22T12:10:25;95201.38;;;23.11;17.86
9261;BME280;4667;42.726;23.252;2024-03-22T12:12:52;95254.81;;;23.63;17.76
9261;BME280;4667;42.726;23.252;2024-03-22T12:15:19;95252.69;;;23.90;17.44
9261;BME280;4667;42.726;23.252;2024-03-22T12:17:46;95242.94;;;24.30;17.02
9261;BME280;4667;42.726;23.252;2024-03-22T12:20:12;95201.88;;;24.46;16.64
9261;BME280;4667;42.726;23.252;2024-03-22T12:22:40;95226.38;;;24.65;15.73
9261;BME280;4667;42.726;23.252;2024-03-22T12:25:08;95247.81;;;23.71;18.40
9261;BME280;4667;42.726;23.252;2024-03-22T12:27:37;95232.69;;;23.57;17.68
9261;BME280;4667;42.726;23.252;2024-03-22T12:30:03;95237.47;;;23.31;17.74
9261;BME280;4667;42.726;23.252;2024-03-22T12:32:31;95227.00;;;22.49;17.89
9261;BME280;4667;42.726;23.252;2024-03-22T12:34:58;95228.13;;;22.40;17.41
9261;BME280;4667;42.726;23.252;2024-03-22T12:37:26;95237.38;;;21.95;17.60
9261;BME280;4667;42.726;23.252;2024-03-22T12:39:52;95223.50;;;21.85;17.76
9261;BME280;4667;42.726;23.252;2024-03-22T12:42:20;95217.81;;;22.50;17.09
9261;BME280;4667;42.726;23.252;2024-03-22T12:44:46;95203.13;;;22.77;17.00
9261;BME280;4667;42.726;23.252;2024-03-22T12:47:13;95211.69;;;23.30;16.75
9261;BME280;4667;42.726;23.252;2024-03-22T12:49:39;95219.88;;;24.08;17.58
9261;BME280;4667;42.726;23.252;2024-03-22T12:52:06;95223.66;;;24.41;16.67
9261;BME280;4667;42.726;23.252;2024-03-22T12:54:32;95220.56;;;24.18;16.22
9261;BME280;4667;42.726;23.252;2024-03-22T12:56:59;95219.84;;;24.54;16.51
9261;BME280;4667;42.726;23.252;2024-03-22T12:59:26;95210.97;;;24.66;16.02
9261;BME280;4667;42.726;23.252;2024-03-22T13:01:53;95210.06;;;24.86;15.52
9261;BME280;4667;42.726;23.252;2024-03-22T13:04:19;95213.88;;;24.97;14.97
9261;BME280;4667;42.726;23.252;2024-03-22T13:06:46;95205.53;;;24.17;15.44
9261;BME280;4667;42.726;23.252;2024-03-22T13:09:12;95202.91;;;24.08;15.36
9261;BME280;4667;42.726;23.252;2024-03-22T13:11:39;95209.06;;;23.63;17.39
9261;BME280;4667;42.726;23.252;2024-03-22T13:14:06;95153.00;;;23.23;17.20
9261;BME280;4667;42.726;23.252;2024-03-22T13:16:35;95201.22;;;24.49;15.63
9261;BME280;4667;42.726;23.252;2024-03-22T13:19:01;95205.47;;;24.86;16.75
9261;BME280;4667;42.726;23.252;2024-03-22T13:21:29;95201.22;;;23.91;17.03
9261;BME280;4667;42.726;23.252;2024-03-22T13:23:56;95204.19;;;23.56;16.45
9261;BME280;4667;42.726;23.252;2024-03-22T13:26:23;95199.59;;;22.94;17.52
9261;BME280;4667;42.726;23.252;2024-03-22T13:28:49;95204.34;;;22.59;17.53
9261;BME280;4667;42.726;23.252;2024-03-22T13:31:16;95192.56;;;21.78;18.37
9261;BME280;4667;42.726;23.252;2024-03-22T13:33:43;95192.56;;;20.92;18.90
9261;BME280;4667;42.726;23.252;2024-03-22T13:36:10;95200.28;;;20.93;19.29
9261;BME280;4667;42.726;23.252;2024-03-22T13:38:36;95200.59;;;20.35;20.43
9261;BME280;4667;42.726;23.252;2024-03-22T13:41:03;95161.84;;;19.70;18.99
9261;BME280;4667;42.726;23.252;2024-03-22T13:43:29;95194.81;;;19.79;19.10
9261;BME280;4667;42.726;23.252;2024-03-22T13:45:56;95200.88;;;19.48;20.80
9261;BME280;4667;42.726;23.252;2024-03-22T13:48:24;95192.75;;;18.95;20.33
9261;BME280;4667;42.726;23.252;2024-03-22T13:50:53;95191.78;;;19.13;19.95
9261;BME280;4667;42.726;23.252;2024-03-22T13:53:19;95178.16;;;19.82;19.67
9261;BME280;4667;42.726;23.252;2024-03-22T13:55:47;95182.78;;;20.30;18.26
9261;BME280;4667;42.726;23.252;2024-03-22T13:58:13;95176.44;;;20.66;18.85
9261;BME280;4667;42.726;23.252;2024-03-22T14:00:40;95165.00;;;21.43;18.27
9261;BME280;4667;42.726;23.252;2024-03-22T14:03:06;95161.03;;;21.58;17.30